Time;durP1;ratioP1;P1;durP2;ratioP2;P2;SDS_P1;SDS_P2;PMS_P1;PMS_P2;Temp;Humidity;BMP_temperature;BMP_pressure;BME280_temperature;BME280_humidity;BME280_pressure;Samples;Min_cycle;Max_cycle;Signal;HPM_P1;HPM_P2
2022/08/31 00:06:39;;;;;;;0.63;0.10;;;;;;;10.20;100.00;100595.84;10593994;28;20043;-77
2022/08/31 00:11:41;;;;;;;0.35;0.17;;;;;;;10.19;100.00;100599.69;10594579;28;20046;-77
2022/08/31 00:16:44;;;;;;;0.10;0.10;;;;;;;10.21;100.00;100600.25;10592029;28;20040;-77
2022/08/31 00:21:46;;;;;;;0.20;0.10;;;;;;;10.20;100.00;100593.91;10570601;28;20042;-77
2022/08/31 00:26:49;;;;;;;0.32;0.25;;;;;;;10.17;100.00;100591.75;10578772;28;20048;-77
2022/08/31 00:31:51;;;;;;;1.88;0.10;;;;;;;10.16;100.00;100592.84;10602430;28;20417;-77
2022/08/31 00:36:53;;;;;;;0.47;0.20;;;;;;;10.16;100.00;100570.09;10578666;27;20036;-77
2022/08/31 00:41:55;;;;;;;0.43;0.20;;;;;;;10.18;100.00;100573.38;10589774;28;20047;-77
2022/08/31 00:46:58;;;;;;;0.73;0.20;;;;;;;10.18;100.00;100567.88;10599020;28;20553;-77
2022/08/31 00:52:16;;;;;;;0.05;0.05;;;;;;;10.15;100.00;100572.00;10576741;28;20032;-77
2022/08/31 00:57:19;;;;;;;0.20;0.20;;;;;;;10.13;100.00;100576.97;10574715;28;20036;-77
2022/08/31 01:02:22;;;;;;;0.73;0.20;;;;;;;10.10;100.00;100582.19;10574046;28;20070;-77
2022/08/31 01:07:24;;;;;;;0.30;0.20;;;;;;;10.08;100.00;100576.16;10600080;28;20063;-78
2022/08/31 01:12:27;;;;;;;0.10;0.10;;;;;;;10.06;100.00;100570.13;10582000;28;20032;-77
2022/08/31 01:17:32;;;;;;;0.50;0.20;;;;;;;10.03;100.00;100570.69;10580093;28;20044;-77
2022/08/31 01:22:55;;;;;;;0.47;0.10;;;;;;;10.01;100.00;100561.91;10576904;28;20402;-77
2022/08/31 01:27:58;;;;;;;0.10;0.10;;;;;;;9.97;100.00;100573.44;10608529;28;20054;-77
2022/08/31 01:33:00;;;;;;;0.28;0.20;;;;;;;9.92;100.00;100558.94;10586553;28;20036;-77
2022/08/31 01:38:03;;;;;;;0.63;0.10;;;;;;;9.90;100.00;100561.16;10586932;28;20052;-77
2022/08/31 01:43:07;;;;;;;0.00;0.00;;;;;;;9.92;100.00;100554.28;10586297;28;20036;-77
2022/08/31 01:48:10;;;;;;;0.17;0.17;;;;;;;9.96;100.00;100555.34;10573602;28;20056;-78
2022/08/31 01:53:12;;;;;;;0.20;0.20;;;;;;;9.99;100.00;100548.50;10582883;27;20055;-77
2022/08/31 01:58:15;;;;;;;0.28;0.28;;;;;;;10.00;100.00;100549.31;10557049;28;20055;-77
2022/08/31 02:03:55;;;;;;;0.17;0.17;;;;;;;9.97;100.00;100543.28;10495934;28;20399;-77
2022/08/31 02:09:05;;;;;;;0.47;0.30;;;;;;;9.96;100.00;100547.13;10561145;28;20417;-77
2022/08/31 02:14:08;;;;;;;0.32;0.15;;;;;;;9.95;100.00;100537.28;10598717;28;20070;-77
2022/08/31 02:19:11;;;;;;;0.20;0.10;;;;;;;9.92;100.00;100543.31;10568950;28;20080;-77
2022/08/31 02:24:14;;;;;;;0.10;0.10;;;;;;;9.88;100.00;100536.72;10566883;28;20040;-77
2022/08/31 02:29:17;;;;;;;0.25;0.25;;;;;;;9.84;100.00;100532.09;10573883;28;20043;-77
2022/08/31 02:34:20;;;;;;;0.75;0.22;;;;;;;9.84;100.00;100537.56;10586417;28;20046;-77
2022/08/31 02:39:22;;;;;;;0.75;0.68;;;;;;;9.81;100.00;100535.41;10544980;28;20039;-77
2022/08/31 02:44:24;;;;;;;0.20;0.20;;;;;;;9.82;100.00;100531.56;10602409;28;20407;-76
2022/08/31 02:49:27;;;;;;;0.15;0.15;;;;;;;9.82;100.00;100532.38;10585528;28;20047;-76
2022/08/31 02:54:30;;;;;;;0.20;0.20;;;;;;;9.80;100.00;100541.97;10557183;28;20036;-77
2022/08/31 02:59:32;;;;;;;0.20;0.20;;;;;;;9.80;100.00;100528.28;10567495;28;20042;-77
2022/08/31 03:04:34;;;;;;;1.08;0.40;;;;;;;9.79;100.00;100532.94;10595806;28;20047;-77
2022/08/31 03:09:36;;;;;;;2.00;0.10;;;;;;;9.77;100.00;100534.31;10587446;28;20048;-77
2022/08/31 03:14:39;;;;;;;0.40;0.40;;;;;;;9.77;100.00;100524.19;10599275;28;20532;-77
2022/08/31 03:19:41;;;;;;;0.30;0.30;;;;;;;9.77;100.00;100517.88;10603327;28;20044;-77
2022/08/31 03:24:43;;;;;;;0.00;0.00;;;;;;;9.76;100.00;100510.75;10560721;28;20502;-77
2022/08/31 03:29:45;;;;;;;0.90;0.30;;;;;;;9.76;100.00;100508.00;10575152;28;20048;-77
2022/08/31 03:34:58;;;;;;;0.20;0.05;;;;;;;9.76;100.00;100514.31;10565071;28;20035;-77
2022/08/31 03:40:01;;;;;;;1.45;0.40;;;;;;;9.74;100.00;100505.56;10550144;28;20506;-77
2022/08/31 03:45:07;;;;;;;0.63;0.40;;;;;;;9.76;100.00;100518.97;10598951;28;20044;-77
2022/08/31 03:50:09;;;;;;;0.00;0.00;;;;;;;9.76;100.00;100500.63;10567343;28;20044;-77
2022/08/31 03:55:27;;;;;;;2.05;0.40;;;;;;;9.75;100.00;100503.63;10531904;28;20451;-77
2022/08/31 04:00:30;;;;;;;0.20;0.20;;;;;;;9.72;100.00;100510.50;10550145;28;20054;-77
2022/08/31 04:05:42;;;;;;;0.40;0.30;;;;;;;9.70;100.00;100507.19;10536703;28;20445;-77
2022/08/31 04:11:11;;;;;;;0.28;0.28;;;;;;;9.72;100.00;100523.34;10548777;28;20044;-76
2022/08/31 04:16:52;;;;;;;0.20;0.20;;;;;;;9.71;99.97;100519.78;10518032;28;20063;-77
2022/08/31 04:22:17;;;;;;;0.40;0.30;;;;;;;9.66;100.00;100530.78;10580910;28;20066;-77
2022/08/31 04:27:39;;;;;;;1.17;0.38;;;;;;;9.69;100.00;100511.03;10587949;28;20627;-77
2022/08/31 04:32:42;;;;;;;0.15;0.15;;;;;;;9.68;100.00;100517.59;10603066;28;20052;-77
2022/08/31 04:37:45;;;;;;;0.75;0.30;;;;;;;9.60;99.81;100519.00;10601352;28;20051;-78
2022/08/31 04:42:48;;;;;;;1.13;0.30;;;;;;;9.53;99.14;100523.13;10587308;28;20036;-77
2022/08/31 04:47:51;;;;;;;0.28;0.20;;;;;;;9.51;99.10;100523.41;10567490;28;20059;-77
2022/08/31 04:52:54;;;;;;;0.57;0.28;;;;;;;9.49;98.93;100511.09;10573332;28;20040;-77
2022/08/31 04:57:57;;;;;;;1.17;0.28;;;;;;;9.50;99.41;100521.75;10556675;28;20048;-77
2022/08/31 05:02:59;;;;;;;0.77;0.20;;;;;;;9.54;99.93;100519.28;10574005;28;20067;-77
2022/08/31 05:08:02;;;;;;;0.50;0.30;;;;;;;9.55;100.00;100520.94;10572954;28;20040;-77
2022/08/31 05:13:04;;;;;;;2.92;0.30;;;;;;;9.61;99.32;100519.84;10582235;28;20044;-77
2022/08/31 05:18:08;;;;;;;0.40;0.40;;;;;;;9.65;99.56;100524.47;10600726;28;20521;-77
2022/08/31 05:23:14;;;;;;;0.90;0.38;;;;;;;9.72;99.67;100515.97;10593862;28;20042;-78
2022/08/31 05:28:22;;;;;;;0.32;0.20;;;;;;;9.73;100.00;100522.28;10562429;28;20044;-77
2022/08/31 05:33:25;;;;;;;0.35;0.35;;;;;;;9.72;100.00;100521.47;10570159;28;20506;-77
2022/08/31 05:38:28;;;;;;;1.95;0.35;;;;;;;9.75;100.00;100518.16;10587218;28;20039;-77
2022/08/31 05:43:31;;;;;;;0.43;0.40;;;;;;;9.72;99.97;100510.50;10547787;28;20035;-78
2022/08/31 05:48:35;;;;;;;0.30;0.30;;;;;;;9.67;100.00;100524.19;10605470;28;20501;-78
2022/08/31 05:53:38;;;;;;;0.40;0.30;;;;;;;9.68;99.76;100517.59;10591205;28;20048;-78
2022/08/31 05:58:42;;;;;;;0.85;0.43;;;;;;;9.69;100.00;100513.78;10556796;28;20031;-78
2022/08/31 06:03:45;;;;;;;0.70;0.30;;;;;;;9.71;100.00;100514.31;10598569;28;20047;-78
2022/08/31 06:08:50;;;;;;;0.65;0.35;;;;;;;9.72;100.00;100515.97;10571982;28;20028;-78
2022/08/31 06:13:55;;;;;;;0.32;0.32;;;;;;;9.72;99.97;100515.97;10581702;28;20047;-77
2022/08/31 06:18:58;;;;;;;0.77;0.57;;;;;;;9.73;100.00;100525.84;10572020;28;20039;-77
2022/08/31 06:24:02;;;;;;;2.28;0.70;;;;;;;9.69;100.00;100516.50;10568276;28;20056;-78
2022/08/31 06:29:08;;;;;;;0.52;0.40;;;;;;;9.67;99.98;100510.50;10568768;28;20036;-78
2022/08/31 06:34:12;;;;;;;0.60;0.43;;;;;;;9.63;100.00;100518.44;10537231;28;20047;-78
2022/08/31 06:39:33;;;;;;;0.70;0.40;;;;;;;9.65;100.00;100523.66;10573485;28;20044;-77
2022/08/31 06:44:44;;;;;;;0.57;0.57;;;;;;;9.59;100.00;100528.34;10589952;28;20413;-78
2022/08/31 06:49:52;;;;;;;1.00;0.50;;;;;;;9.53;100.00;100523.94;10596667;28;20048;-78
2022/08/31 06:54:55;;;;;;;1.98;0.38;;;;;;;9.47;100.00;100526.97;10537714;28;20035;-78
2022/08/31 07:00:16;;;;;;;0.93;0.45;;;;;;;9.50;99.63;100535.47;10585600;28;20036;-78
2022/08/31 07:05:25;;;;;;;0.85;0.47;;;;;;;9.52;99.92;100532.44;10561003;28;20490;-78
2022/08/31 07:10:28;;;;;;;1.60;0.60;;;;;;;9.52;99.69;100538.72;10551433;28;20497;-78
2022/08/31 07:15:31;;;;;;;0.43;0.40;;;;;;;9.54;99.54;100547.50;10568711;28;20052;-78
2022/08/31 07:20:33;;;;;;;0.68;0.65;;;;;;;9.52;99.55;100546.13;10568613;28;20067;-78
2022/08/31 07:25:38;;;;;;;1.08;0.52;;;;;;;9.53;99.69;100534.91;10551539;28;20047;-78
2022/08/31 07:30:40;;;;;;;0.90;0.60;;;;;;;9.53;98.83;100539.56;10567567;28;20067;-78
2022/08/31 07:35:44;;;;;;;0.95;0.68;;;;;;;9.49;98.86;100539.28;10568167;28;20283;-78
2022/08/31 07:46:17;;;;;;;0.55;0.52;;;;;;;9.44;98.11;100544.78;10571482;28;20051;-78
2022/08/31 07:51:22;;;;;;;0.60;0.60;;;;;;;9.48;98.38;100553.28;10575839;28;20050;-78
2022/08/31 07:56:51;;;;;;;0.80;0.63;;;;;;;9.44;98.57;100553.00;10575425;28;20056;-78
2022/08/31 08:01:55;;;;;;;0.60;0.50;;;;;;;9.50;98.29;100553.81;10544626;28;20047;-78
2022/08/31 08:06:59;;;;;;;0.30;0.30;;;;;;;9.52;98.36;100554.34;10550091;28;20454;-78
2022/08/31 08:12:16;;;;;;;0.57;0.57;;;;;;;9.51;98.66;100559.00;10547440;28;20526;-78
2022/08/31 08:17:31;;;;;;;1.20;0.80;;;;;;;9.51;98.40;100536.28;10576929;28;20040;-78
2022/08/31 08:22:42;;;;;;;2.63;0.60;;;;;;;9.53;97.91;100545.03;10574767;28;20479;-78
2022/08/31 08:28:04;;;;;;;2.17;0.50;;;;;;;9.62;98.24;100548.88;10554513;28;20055;-78
2022/08/31 08:33:10;;;;;;;0.80;0.50;;;;;;;9.60;97.31;100551.06;10574437;28;20052;-78
2022/08/31 08:38:18;;;;;;;0.30;0.30;;;;;;;9.60;97.54;100546.41;10573569;28;20052;-78
2022/08/31 08:43:23;;;;;;;1.27;0.70;;;;;;;9.59;97.66;100554.91;10576012;28;20056;-78
2022/08/31 08:48:27;;;;;;;1.38;0.50;;;;;;;9.57;97.06;100555.19;10566995;28;20054;-78
2022/08/31 08:53:30;;;;;;;0.85;0.50;;;;;;;9.54;97.45;100546.69;10541575;28;20047;-78
2022/08/31 08:58:51;;;;;;;1.77;0.55;;;;;;;9.51;97.32;100533.53;10572497;28;20036;-78
2022/08/31 09:04:15;;;;;;;1.85;0.68;;;;;;;9.48;97.83;100548.63;10573662;28;20040;-78
2022/08/31 09:10:34;;;;;;;0.65;0.50;;;;;;;9.46;97.08;100550.81;10573341;28;20047;-78
2022/08/31 09:15:51;;;;;;;0.90;0.40;;;;;;;9.41;97.02;100559.03;10530440;28;20044;-78
2022/08/31 09:21:20;;;;;;;0.45;0.38;;;;;;;9.44;97.15;100561.22;10552557;28;20406;-78
2022/08/31 09:26:26;;;;;;;1.60;0.40;;;;;;;9.46;97.72;100560.94;10572434;28;20043;-78
2022/08/31 09:32:00;;;;;;;0.82;0.50;;;;;;;9.47;97.28;100557.09;10571814;28;20418;-78
2022/08/31 09:37:32;;;;;;;0.95;0.47;;;;;;;9.47;97.43;100568.06;10567217;28;20535;-78
2022/08/31 09:42:34;;;;;;;1.42;0.50;;;;;;;9.45;97.53;100576.56;10568118;28;20048;-79
2022/08/31 09:47:49;;;;;;;0.40;0.40;;;;;;;9.46;97.19;100580.13;10569614;28;20525;-79
2022/08/31 09:58:49;;;;;;;0.75;0.40;;;;;;;9.30;96.33;100585.59;10568645;28;20142;-80
2022/08/31 10:04:07;;;;;;;0.40;0.30;;;;;;;9.22;95.68;100599.84;10584584;28;20046;-79
2022/08/31 10:09:17;;;;;;;0.47;0.40;;;;;;;9.18;96.07;100598.72;10569465;28;20438;-79
2022/08/31 10:14:24;;;;;;;0.20;0.20;;;;;;;9.22;95.56;100597.09;10552755;28;20037;-79
2022/08/31 10:19:42;;;;;;;0.50;0.30;;;;;;;9.15;95.37;100595.72;10549022;28;20044;-79
2022/08/31 10:24:45;;;;;;;;;;;;;;;9.16;95.92;100594.63;10553776;28;20042;-79
2022/08/31 10:29:55;;;;;;;0.55;0.45;;;;;;;9.21;95.57;100600.94;10559211;28;19919;-79
2022/08/31 10:35:09;;;;;;;0.40;0.30;;;;;;;9.20;96.15;100603.94;10569066;28;20096;-79
2022/08/31 10:40:23;;;;;;;0.80;0.50;;;;;;;9.23;96.27;100604.22;10569441;28;20421;-79
2022/08/31 10:45:28;;;;;;;0.98;0.30;;;;;;;9.26;95.23;100609.16;10563832;28;20039;-79
2022/08/31 10:51:04;;;;;;;0.50;0.50;;;;;;;9.24;95.51;100600.41;10568955;28;20048;-79
2022/08/31 10:56:17;;;;;;;1.27;0.30;;;;;;;9.29;95.26;100605.84;10535192;28;20048;-79
2022/08/31 11:01:47;;;;;;;0.52;0.50;;;;;;;9.28;95.58;100601.47;10548201;28;20031;-79
2022/08/31 11:07:10;;;;;;;0.70;0.38;;;;;;;9.26;95.59;100594.63;10567341;28;20040;-79
2022/08/31 11:12:20;;;;;;;1.30;0.35;;;;;;;9.25;95.70;100609.44;10540614;28;20415;-79
2022/08/31 11:17:41;;;;;;;1.85;0.40;;;;;;;9.29;96.62;100600.38;10566189;28;20513;-77
2022/08/31 11:23:08;;;;;;;0.50;0.40;;;;;;;9.31;96.04;100600.94;10548320;28;20064;-78
2022/08/31 11:28:30;;;;;;;0.57;0.40;;;;;;;9.31;95.99;100598.19;10590570;28;20075;-78
2022/08/31 11:33:33;;;;;;;1.08;0.30;;;;;;;9.31;95.90;100597.38;10567761;28;20048;-78
2022/08/31 11:39:02;;;;;;;0.88;0.40;;;;;;;9.32;95.46;100609.97;10569357;28;20044;-78
2022/08/31 11:44:09;;;;;;;0.35;0.30;;;;;;;9.29;95.76;100605.84;10540661;28;20044;-78
2022/08/31 11:49:35;;;;;;;0.53;0.30;;;;;;;9.34;95.47;100608.59;10542509;28;20047;-78
2022/08/31 11:54:40;;;;;;;1.30;0.40;;;;;;;9.33;95.38;100619.81;10569560;28;20449;-78
2022/08/31 11:59:47;;;;;;;1.70;1.08;;;;;;;9.38;94.50;100614.38;10568938;28;20425;-78
2022/08/31 12:04:52;;;;;;;0.40;0.40;;;;;;;9.37;94.58;100620.91;10550631;28;20040;-78
2022/08/31 12:10:02;;;;;;;1.20;0.45;;;;;;;9.35;94.95;100631.31;10560897;28;20506;-78
2022/08/31 12:15:43;;;;;;;0.95;0.30;;;;;;;9.34;94.17;100618.72;10570355;28;20036;-78
2022/08/31 12:27:09;;;;;;;0.95;0.60;;;;;;;9.41;94.72;100637.63;10555686;28;20059;-76
2022/08/31 12:32:13;;;;;;;0.38;0.20;;;;;;;9.38;94.33;100619.03;10568337;28;20043;-77
2022/08/31 12:37:28;;;;;;;0.38;0.38;;;;;;;9.30;93.32;100629.41;10578860;28;20039;-80
2022/08/31 12:42:33;;;;;;;0.28;0.28;;;;;;;9.19;93.83;100635.97;10616652;28;20043;-78
2022/08/31 12:48:02;;;;;;;0.73;0.40;;;;;;;9.21;94.19;100641.19;10577258;28;20051;-78
2022/08/31 12:53:28;;;;;;;0.43;0.30;;;;;;;9.22;94.15;100640.09;10540528;28;20055;-78
2022/08/31 12:58:52;;;;;;;0.60;0.60;;;;;;;9.23;95.41;100628.88;10573285;28;20053;-82
2022/08/31 13:03:58;;;;;;;0.95;0.20;;;;;;;9.14;95.11;100640.63;10571239;28;20126;-80
2022/08/31 13:09:02;;;;;;;0.38;0.32;;;;;;;9.02;94.96;100643.59;10582415;28;20086;-79
2022/08/31 13:14:21;;;;;;;0.45;0.30;;;;;;;8.89;94.53;100653.16;10537830;28;20035;-78
2022/08/31 13:19:28;;;;;;;0.60;0.30;;;;;;;8.88;94.41;100656.16;10593942;27;20517;-80
2022/08/31 13:24:39;;;;;;;0.70;0.30;;;;;;;8.91;95.02;100645.50;10575962;28;20036;-81
2022/08/31 13:29:45;;;;;;;0.38;0.38;;;;;;;8.87;95.14;100641.66;10587172;28;20718;-81
2022/08/31 13:34:48;;;;;;;0.15;0.15;;;;;;;8.85;94.55;100653.94;10608746;28;20513;-80
2022/08/31 13:39:50;;;;;;;0.20;0.20;;;;;;;8.75;93.59;100652.84;10570649;28;20043;-80
2022/08/31 13:44:56;;;;;;;0.20;0.20;;;;;;;8.76;94.29;100659.97;10573777;28;20425;-81
2022/08/31 13:50:06;;;;;;;0.40;0.40;;;;;;;8.75;94.65;100665.69;10570817;28;20048;-81
2022/08/31 13:55:11;;;;;;;1.65;0.30;;;;;;;8.75;94.59;100655.59;10571628;28;20070;-81
2022/08/31 14:00:22;;;;;;;0.68;0.50;;;;;;;8.74;94.62;100655.84;10571148;28;20051;-80
2022/08/31 14:05:30;;;;;;;0.35;0.35;;;;;;;8.73;95.28;100655.03;10572128;28;20042;-80
2022/08/31 14:10:45;;;;;;;0.50;0.50;;;;;;;8.72;96.14;100658.84;10588222;28;20104;-79
2022/08/31 14:15:52;;;;;;;0.65;0.65;;;;;;;8.67;96.45;100658.81;10559285;28;20051;-79
2022/08/31 14:21:10;;;;;;;1.00;0.40;;;;;;;8.62;97.05;100667.00;10570040;28;20141;-78
2022/08/31 14:26:20;;;;;;;1.52;0.45;;;;;;;8.56;96.72;100654.41;10570684;28;20044;-78
2022/08/31 14:31:32;;;;;;;0.50;0.30;;;;;;;8.51;96.23;100648.94;10569577;28;20071;-78
2022/08/31 14:36:49;;;;;;;0.57;0.40;;;;;;;8.48;96.52;100654.09;10568441;28;20036;-78
2022/08/31 14:41:56;;;;;;;0.50;0.30;;;;;;;8.50;96.44;100651.91;10567341;28;20044;-80
2022/08/31 14:46:59;;;;;;;1.35;0.45;;;;;;;8.49;97.22;100661.19;10565445;28;20139;-78
2022/08/31 14:52:04;;;;;;;0.40;0.40;;;;;;;8.49;96.90;100658.47;10552515;28;20036;-78
2022/08/31 14:57:12;;;;;;;0.43;0.40;;;;;;;8.52;96.60;100658.78;10567376;28;20414;-79
2022/08/31 15:02:19;;;;;;;0.65;0.30;;;;;;;8.46;96.70;100659.84;10568215;28;20064;-79
2022/08/31 15:07:22;;;;;;;0.88;0.40;;;;;;;8.42;97.24;100650.53;10560929;28;20047;-79
2022/08/31 15:12:24;;;;;;;0.73;0.38;;;;;;;8.33;97.14;100660.28;10565646;28;20072;-79
2022/08/31 15:17:32;;;;;;;0.90;0.60;;;;;;;8.27;96.38;100675.00;10568204;28;20032;-80
2022/08/31 15:22:37;;;;;;;0.55;0.40;;;;;;;8.24;96.84;100665.44;10552277;28;20505;-88
2022/08/31 15:27:42;;;;;;;0.45;0.20;;;;;;;8.23;96.33;100657.50;10548338;28;20032;-78
2022/08/31 15:32:46;;;;;;;0.50;0.50;;;;;;;8.22;96.04;100666.78;10567396;28;20043;-78
2022/08/31 15:37:57;;;;;;;1.30;0.50;;;;;;;8.20;96.63;100669.78;10566853;28;20039;-78
2022/08/31 15:43:00;;;;;;;2.38;0.80;;;;;;;8.21;96.32;100674.19;10582156;28;20047;-77
2022/08/31 15:53:24;;;;;;;1.15;0.70;;;;;;;8.12;96.42;100675.75;10549041;28;20071;-78
2022/08/31 15:58:28;;;;;;;1.73;0.70;;;;;;;8.22;95.98;100681.28;10577758;28;20048;-78
2022/08/31 16:03:31;;;;;;;1.42;0.40;;;;;;;8.21;96.98;100673.34;10553152;28;20043;-80
2022/08/31 16:08:34;;;;;;;1.95;1.08;;;;;;;8.16;96.87;100677.72;10545890;28;20057;-81
2022/08/31 16:13:48;;;;;;;0.50;0.30;;;;;;;8.11;96.23;100677.66;10583305;28;20047;-76
2022/08/31 16:18:52;;;;;;;0.30;0.30;;;;;;;8.14;96.31;100676.31;10575088;28;20052;-77
2022/08/31 16:23:59;;;;;;;0.68;0.40;;;;;;;8.09;95.95;100673.53;10572536;28;20047;-77
2022/08/31 16:29:09;;;;;;;0.20;0.20;;;;;;;8.12;95.23;100683.94;10570911;28;20501;-77
2022/08/31 16:34:11;;;;;;;2.10;0.73;;;;;;;8.03;95.55;100678.16;10576271;28;20510;-78
2022/08/31 16:39:14;;;;;;;1.98;1.33;;;;;;;7.95;95.02;100667.72;10593169;28;20044;-79
2022/08/31 16:44:16;;;;;;;0.30;0.22;;;;;;;7.90;94.91;100678.63;10572323;28;20039;-77
2022/08/31 16:49:35;;;;;;;3.08;0.15;;;;;;;7.92;94.97;100676.44;10572677;28;20040;-78
2022/08/31 16:54:43;;;;;;;0.20;0.20;;;;;;;7.89;94.38;100678.88;10576397;28;20043;-78
2022/08/31 16:59:47;;;;;;;0.80;0.30;;;;;;;7.89;94.52;100673.41;10565385;28;20047;-79
2022/08/31 17:04:49;;;;;;;0.20;0.20;;;;;;;7.83;94.89;100678.84;10566001;28;20525;-78
2022/08/31 17:10:05;;;;;;;0.28;0.13;;;;;;;7.78;95.16;100669.78;10551456;28;20040;-78
2022/08/31 17:15:10;;;;;;;2.35;0.50;;;;;;;7.70;94.69;100665.63;10567274;28;20050;-78
2022/08/31 17:20:13;;;;;;;0.40;0.40;;;;;;;7.70;94.75;100667.53;10564162;28;20032;-76
2022/08/31 17:25:15;;;;;;;0.30;0.30;;;;;;;7.70;95.43;100670.28;10573629;28;20387;-77
2022/08/31 17:30:17;;;;;;;1.45;0.40;;;;;;;7.70;95.25;100670.28;10573558;28;20521;-77
2022/08/31 17:35:19;;;;;;;0.30;0.22;;;;;;;7.70;95.65;100683.94;10572066;28;20032;-76
2022/08/31 17:40:22;;;;;;;0.80;0.30;;;;;;;7.61;95.17;100680.84;10572243;28;20040;-76
2022/08/31 17:45:24;;;;;;;0.57;0.30;;;;;;;7.64;95.95;100674.06;10572476;28;20052;-76
2022/08/31 17:50:26;;;;;;;1.55;0.60;;;;;;;7.68;95.39;100667.81;10572430;28;20059;-77
2022/08/31 17:55:29;;;;;;;1.48;0.93;;;;;;;7.71;96.65;100661.00;10564401;28;20043;-77
2022/08/31 18:00:32;;;;;;;0.47;0.47;;;;;;;7.75;96.63;100670.31;10553696;28;20040;-77
2022/08/31 18:05:34;;;;;;;1.65;0.63;;;;;;;7.78;96.80;100667.03;10536972;28;20052;-77
2022/08/31 18:10:37;;;;;;;0.30;0.30;;;;;;;7.77;97.13;100662.66;10530791;28;20414;-77
2022/08/31 18:15:40;;;;;;;0.82;0.40;;;;;;;7.78;96.54;100664.31;10529663;28;20048;-76
2022/08/31 18:20:43;;;;;;;1.02;0.40;;;;;;;7.78;96.74;100670.59;10569874;28;20533;-76
2022/08/31 18:25:45;;;;;;;0.68;0.40;;;;;;;7.80;96.27;100662.97;10554393;28;20055;-76
2022/08/31 18:30:48;;;;;;;0.43;0.30;;;;;;;7.85;96.12;100659.47;10568390;28;20044;-77
2022/08/31 18:35:50;;;;;;;0.30;0.30;;;;;;;7.90;96.48;100662.22;10541904;28;20453;-77
2022/08/31 18:46:13;;;;;;;0.32;0.30;;;;;;;7.82;96.91;100663.53;10568548;28;20417;-77
2022/08/31 18:51:22;;;;;;;0.63;0.40;;;;;;;7.79;95.93;100658.59;10569143;28;20047;-79
2022/08/31 18:56:24;;;;;;;0.20;0.20;;;;;;;7.75;96.14;100645.72;10552603;28;20044;-79
2022/08/31 19:01:28;;;;;;;0.05;0.03;;;;;;;7.78;95.36;100654.22;10567966;28;20032;-79
2022/08/31 19:06:30;;;;;;;0.90;0.40;;;;;;;7.78;95.40;100654.22;10596467;28;20032;-78
2022/08/31 19:11:40;;;;;;;0.25;0.25;;;;;;;7.78;95.14;100640.53;10572091;28;20551;-79
2022/08/31 19:16:43;;;;;;;0.30;0.20;;;;;;;7.78;94.97;100645.19;10580270;27;20055;-79
2022/08/31 19:21:45;;;;;;;0.25;0.20;;;;;;;7.79;95.05;100649.56;10565943;28;20036;-78
2022/08/31 19:26:50;;;;;;;0.22;0.20;;;;;;;7.75;95.21;100645.72;10556304;28;20044;-77
2022/08/31 19:31:54;;;;;;;0.20;0.20;;;;;;;7.73;95.02;100642.44;10571500;28;20048;-78
2022/08/31 19:36:58;;;;;;;0.95;0.47;;;;;;;7.71;95.54;100641.88;10560422;28;20050;-79
2022/08/31 19:42:02;;;;;;;1.92;0.30;;;;;;;7.76;94.54;100641.91;10584713;28;20048;-78
2022/08/31 19:47:06;;;;;;;0.20;0.20;;;;;;;7.76;94.96;100639.16;10563968;28;20458;-78
2022/08/31 19:52:08;;;;;;;0.20;0.20;;;;;;;7.77;95.40;100635.34;10580172;28;20048;-77
2022/08/31 19:57:10;;;;;;;2.30;0.28;;;;;;;7.75;95.40;100630.16;10587483;28;20032;-77
2022/08/31 20:02:12;;;;;;;1.52;0.20;;;;;;;7.78;95.50;100631.53;10556449;28;20040;-76
2022/08/31 20:07:15;;;;;;;0.52;0.20;;;;;;;7.74;95.15;100627.69;10573007;28;20059;-78
2022/08/31 20:12:18;;;;;;;0.50;0.30;;;;;;;7.78;95.26;100624.16;10571753;28;20036;-76
2022/08/31 20:17:20;;;;;;;0.50;0.50;;;;;;;7.72;95.16;100617.03;10577423;28;20028;-76
2022/08/31 20:22:23;;;;;;;0.90;0.40;;;;;;;7.66;95.59;100611.81;10569082;28;20032;-78
2022/08/31 20:27:25;;;;;;;0.47;0.40;;;;;;;7.64;96.31;100614.81;10565704;28;20044;-77
2022/08/31 20:32:28;;;;;;;0.30;0.30;;;;;;;7.57;96.03;100604.09;10549951;28;20040;-78
2022/08/31 20:37:30;;;;;;;0.20;0.20;;;;;;;7.56;96.68;100610.63;10554876;28;20048;-78
2022/08/31 20:42:33;;;;;;;0.52;0.20;;;;;;;7.50;96.45;100600.78;10549053;28;20106;-78
2022/08/31 20:52:56;;;;;;;0.60;0.30;;;;;;;7.54;96.14;100607.34;10573068;28;20044;-77
2022/08/31 20:57:59;;;;;;;0.20;0.20;;;;;;;7.62;96.09;100610.66;10578900;28;20040;-75
2022/08/31 21:03:02;;;;;;;0.10;0.10;;;;;;;7.50;95.74;100617.16;10567106;28;20052;-77
2022/08/31 21:08:04;;;;;;;0.20;0.10;;;;;;;7.49;95.95;100614.69;10573595;28;20039;-76
2022/08/31 21:13:09;;;;;;;0.10;0.10;;;;;;;7.40;95.41;100606.13;10572148;28;20063;-76
2022/08/31 21:18:16;;;;;;;1.10;0.40;;;;;;;7.33;95.03;100611.00;10571483;28;20028;-76
2022/08/31 21:23:18;;;;;;;0.30;0.20;;;;;;;7.34;94.36;100595.44;10571585;28;20578;-76
2022/08/31 21:28:20;;;;;;;1.02;0.30;;;;;;;7.39;94.75;100599.03;10570453;28;20048;-76
2022/08/31 21:33:23;;;;;;;0.20;0.20;;;;;;;7.41;94.88;100588.66;10570316;28;20498;-76
2022/08/31 21:38:25;;;;;;;0.10;0.10;;;;;;;7.45;95.18;100581.59;10571809;28;20177;-77
2022/08/31 21:43:28;;;;;;;0.40;0.30;;;;;;;7.43;96.06;100589.22;10570000;28;20055;-78
2022/08/31 21:48:32;;;;;;;0.85;0.75;;;;;;;7.43;95.16;100588.41;10555912;28;20059;-79
2022/08/31 21:53:34;;;;;;;0.30;0.10;;;;;;;7.37;95.06;100576.63;10554915;28;20039;-79
2022/08/31 21:58:37;;;;;;;0.38;0.22;;;;;;;7.32;95.72;100570.31;10567965;28;20401;-79
2022/08/31 22:03:39;;;;;;;0.20;0.20;;;;;;;7.27;95.58;100565.63;10568079;28;20051;-79
2022/08/31 22:08:41;;;;;;;0.40;0.25;;;;;;;7.26;95.63;100558.53;10570412;28;20036;-79
2022/08/31 22:13:46;;;;;;;0.15;0.10;;;;;;;7.31;95.20;100558.59;10556744;28;20066;-79
2022/08/31 22:18:51;;;;;;;1.75;0.90;;;;;;;7.26;96.19;100550.34;10569978;28;20055;-79
2022/08/31 22:23:56;;;;;;;0.47;0.25;;;;;;;7.21;96.12;100542.94;10552848;28;20059;-79
2022/08/31 22:28:59;;;;;;;0.95;0.10;;;;;;;7.23;95.50;100545.41;10568435;28;20414;-79
2022/08/31 22:34:01;;;;;;;1.13;0.17;;;;;;;7.25;96.07;100546.78;10576083;28;20044;-79
2022/08/31 22:39:07;;;;;;;0.20;0.20;;;;;;;7.18;95.92;100545.38;10572487;28;20044;-79
2022/08/31 22:44:12;;;;;;;0.73;0.20;;;;;;;7.20;95.69;100548.66;10551543;28;20031;-79
2022/08/31 22:49:14;;;;;;;1.13;0.30;;;;;;;7.23;95.60;100548.13;10586888;28;20142;-79
2022/08/31 22:54:18;;;;;;;0.20;0.20;;;;;;;7.22;96.51;100546.50;10567559;28;20043;-79
2022/08/31 22:59:25;;;;;;;2.70;0.17;;;;;;;7.23;95.97;100545.41;10566216;28;20032;-79
2022/08/31 23:04:28;;;;;;;;;;;;;;;7.26;95.89;100542.97;10578089;28;20036;-79
2022/08/31 23:09:32;;;;;;;0.30;0.15;;;;;;;7.20;96.50;100551.38;10543353;28;19919;-79
2022/08/31 23:14:36;;;;;;;0.20;0.20;;;;;;;7.20;96.75;100552.22;10587576;28;20051;-79
2022/08/31 23:19:41;;;;;;;0.20;0.10;;;;;;;7.29;96.13;100547.09;10569708;28;20036;-78
2022/08/31 23:24:45;;;;;;;0.00;0.00;;;;;;;7.23;96.71;100545.41;10546782;28;20044;-78
2022/08/31 23:29:50;;;;;;;0.10;0.10;;;;;;;7.22;97.06;100551.94;10570903;28;20054;-78
2022/08/31 23:34:55;;;;;;;0.10;0.10;;;;;;;7.12;96.39;100541.78;10590910;28;20047;-78
2022/08/31 23:39:58;;;;;;;0.13;0.13;;;;;;;7.17;97.03;100552.75;10568646;28;20503;-78
2022/08/31 23:45:01;;;;;;;0.10;0.10;;;;;;;7.17;97.03;100543.72;10576141;28;20058;-79
2022/08/31 23:50:07;;;;;;;0.03;0.03;;;;;;;7.15;97.71;100534.97;10573149;28;20063;-79
2022/08/31 23:55:10;;;;;;;0.38;0.20;;;;;;;7.12;97.54;100543.69;10586771;28;20038;-79
